CTV110 WAAA-WIMM
Flight info
| Callsign | CTV110 |
|---|---|
| Flight time | 3h 13m |
| Altitude | 38000 |
| Route | GURNI1A GURNI W35 PNK L504 OBDOS M774 OTLAL DCT TPG A464 IRTAD DCT SAMKO R469 ASUNA/N0463F390 L762 MIBEL/N0463F380 L762 AKPAG AKPAG1C |
| Aircraft | A339/H-SADE1E2E3GHIJ3J5M1P2RWXY/LB2D1 |
Departure
| Time | 2026-04-24 07:55 |
|---|---|
| Airport | Sultan Hasanuddin International Airport (WAAA) |
Arrival
| Time | 2026-04-24 11:08 |
|---|---|
| Airport | Kualanamu International Airport (WIMM) |
| Time | Latitude | Longitude | Altitude | Speed | Heading |
|---|---|---|---|---|---|
| 2026-04-24 06:59 | -5.07761 | 119.54745 | 47 ft | 0 kts | 300° |
| 2026-04-24 07:43 | -5.07763 | 119.54747 | 47 ft | 3 kts | 300° |
| 2026-04-24 07:44 | -5.07776 | 119.54770 | 45 ft | 4 kts | 300° |
| 2026-04-24 07:44 | -5.07788 | 119.54789 | 44 ft | 4 kts | 290° |
| 2026-04-24 07:44 | -5.07795 | 119.54811 | 46 ft | 4 kts | 256° |
| 2026-04-24 07:44 | -5.07788 | 119.54832 | 43 ft | 4 kts | 216° |
| 2026-04-24 07:45 | -5.07766 | 119.54845 | 46 ft | 4 kts | 206° |
| 2026-04-24 07:45 | -5.07753 | 119.54852 | 43 ft | 0 kts | 210° |
| 2026-04-24 07:50 | -5.07760 | 119.54847 | 44 ft | 4 kts | 210° |
| 2026-04-24 07:50 | -5.07795 | 119.54827 | 43 ft | 8 kts | 210° |
| 2026-04-24 07:50 | -5.07853 | 119.54793 | 47 ft | 12 kts | 210° |
| 2026-04-24 07:50 | -5.07933 | 119.54746 | 47 ft | 15 kts | 210° |
| 2026-04-24 07:51 | -5.08015 | 119.54762 | 47 ft | 13 kts | 122° |
| 2026-04-24 07:51 | -5.08083 | 119.54835 | 47 ft | 16 kts | 158° |
| 2026-04-24 07:51 | -5.08194 | 119.54797 | 47 ft | 18 kts | 209° |
| 2026-04-24 07:51 | -5.08314 | 119.54729 | 47 ft | 21 kts | 210° |
| 2026-04-24 07:52 | -5.08448 | 119.54650 | 47 ft | 24 kts | 210° |
| 2026-04-24 07:52 | -5.08595 | 119.54564 | 47 ft | 26 kts | 210° |
| 2026-04-24 07:52 | -5.08756 | 119.54472 | 47 ft | 28 kts | 210° |
| 2026-04-24 07:52 | -5.08927 | 119.54374 | 47 ft | 29 kts | 210° |
| 2026-04-24 07:53 | -5.09056 | 119.54298 | 47 ft | 13 kts | 210° |
| 2026-04-24 07:53 | -5.09081 | 119.54284 | 47 ft | 6 kts | 208° |
| 2026-04-24 07:53 | -5.09151 | 119.54288 | 47 ft | 14 kts | 155° |
| 2026-04-24 07:53 | -5.09209 | 119.54374 | 47 ft | 15 kts | 116° |
| 2026-04-24 07:54 | -5.09173 | 119.54434 | 48 ft | 9 kts | 36° |
| 2026-04-24 07:54 | -5.09119 | 119.54471 | 48 ft | 9 kts | 32° |
| 2026-04-24 07:54 | -5.09034 | 119.54517 | 49 ft | 33 kts | 28° |
| 2026-04-24 07:54 | -5.08584 | 119.54773 | 47 ft | 114 kts | 28° |
| 2026-04-24 07:55 | -5.07701 | 119.55279 | 48 ft | 175 kts | 30° |
| 2026-04-24 07:55 | -5.06582 | 119.55933 | 594 ft | 184 kts | 28° |
| 2026-04-24 07:55 | -5.05484 | 119.56562 | 1427 ft | 183 kts | 20° |
| 2026-04-24 07:55 | -5.04222 | 119.56674 | 2114 ft | 187 kts | 349° |
| 2026-04-24 07:56 | -5.02904 | 119.56356 | 2615 ft | 203 kts | 344° |
| 2026-04-24 07:56 | -5.01461 | 119.56016 | 2953 ft | 223 kts | 350° |
| 2026-04-24 07:56 | -4.99824 | 119.55813 | 3292 ft | 244 kts | 357° |
| 2026-04-24 07:56 | -4.98070 | 119.55752 | 3585 ft | 262 kts | 1° |
| 2026-04-24 07:57 | -4.96208 | 119.55760 | 4026 ft | 270 kts | 0° |
| 2026-04-24 07:57 | -4.94956 | 119.55657 | 4400 ft | 273 kts | 352° |
| 2026-04-24 07:57 | -4.93060 | 119.55298 | 4798 ft | 287 kts | 351° |
| 2026-04-24 07:57 | -4.91034 | 119.54903 | 4994 ft | 305 kts | 350° |
| 2026-04-24 07:58 | -4.88895 | 119.54487 | 5202 ft | 321 kts | 350° |
| 2026-04-24 07:58 | -4.86691 | 119.54058 | 5756 ft | 323 kts | 351° |
| 2026-04-24 07:58 | -4.84475 | 119.53603 | 6282 ft | 327 kts | 346° |
| 2026-04-24 07:58 | -4.82424 | 119.52590 | 6788 ft | 334 kts | 324° |
| 2026-04-24 07:59 | -4.80863 | 119.50862 | 7323 ft | 339 kts | 302° |
| 2026-04-24 07:59 | -4.79910 | 119.48695 | 7838 ft | 342 kts | 289° |
| 2026-04-24 07:59 | -4.79187 | 119.46403 | 8366 ft | 345 kts | 287° |
| 2026-04-24 07:59 | -4.78482 | 119.44095 | 8888 ft | 347 kts | 288° |
| 2026-04-24 08:00 | -4.77727 | 119.41788 | 9427 ft | 349 kts | 289° |
| 2026-04-24 08:00 | -4.76922 | 119.39483 | 9924 ft | 351 kts | 290° |
| 2026-04-24 08:00 | -4.76072 | 119.37141 | 10418 ft | 353 kts | 290° |
| 2026-04-24 08:00 | -4.75216 | 119.34820 | 10892 ft | 356 kts | 291° |
| 2026-04-24 08:01 | -4.74350 | 119.32484 | 11380 ft | 359 kts | 291° |
| 2026-04-24 08:01 | -4.73477 | 119.30124 | 11861 ft | 361 kts | 290° |
| 2026-04-24 08:01 | -4.72601 | 119.27755 | 12345 ft | 364 kts | 290° |
| 2026-04-24 08:01 | -4.71739 | 119.25420 | 12812 ft | 366 kts | 290° |
| 2026-04-24 08:02 | -4.70851 | 119.23011 | 13291 ft | 369 kts | 290° |
| 2026-04-24 08:02 | -4.69944 | 119.20554 | 13748 ft | 371 kts | 290° |
| 2026-04-24 08:02 | -4.69048 | 119.18122 | 14172 ft | 374 kts | 290° |
| 2026-04-24 08:02 | -4.68133 | 119.15639 | 14602 ft | 376 kts | 290° |
| 2026-04-24 08:03 | -4.67224 | 119.13174 | 15017 ft | 378 kts | 290° |
| 2026-04-24 08:03 | -4.66308 | 119.10690 | 15429 ft | 380 kts | 290° |
| 2026-04-24 08:03 | -4.65387 | 119.08191 | 15853 ft | 383 kts | 290° |
| 2026-04-24 08:03 | -4.64463 | 119.05684 | 16258 ft | 385 kts | 290° |
| 2026-04-24 08:04 | -4.63530 | 119.03151 | 16660 ft | 387 kts | 290° |
| 2026-04-24 08:04 | -4.62592 | 119.00607 | 17051 ft | 390 kts | 290° |
| 2026-04-24 08:04 | -4.61650 | 118.98052 | 17447 ft | 392 kts | 290° |
| 2026-04-24 08:04 | -4.60701 | 118.95476 | 17840 ft | 395 kts | 290° |
| 2026-04-24 08:05 | -4.59759 | 118.92922 | 18211 ft | 397 kts | 290° |
| 2026-04-24 08:05 | -4.58801 | 118.90322 | 18563 ft | 399 kts | 290° |
| 2026-04-24 08:05 | -4.57836 | 118.87705 | 18903 ft | 401 kts | 290° |
| 2026-04-24 08:05 | -4.56864 | 118.85069 | 19250 ft | 404 kts | 290° |
| 2026-04-24 08:06 | -4.55887 | 118.82420 | 19604 ft | 406 kts | 290° |
| 2026-04-24 08:06 | -4.54906 | 118.79760 | 19943 ft | 408 kts | 290° |
| 2026-04-24 08:06 | -4.53917 | 118.77080 | 20279 ft | 411 kts | 290° |
| 2026-04-24 08:06 | -4.52924 | 118.74387 | 20631 ft | 413 kts | 290° |
| 2026-04-24 08:07 | -4.51925 | 118.71675 | 20968 ft | 416 kts | 290° |
| 2026-04-24 08:07 | -4.50922 | 118.68948 | 21323 ft | 418 kts | 290° |
| 2026-04-24 08:07 | -4.49913 | 118.66204 | 21665 ft | 421 kts | 290° |
| 2026-04-24 08:07 | -4.48899 | 118.63447 | 22010 ft | 423 kts | 290° |
| 2026-04-24 08:08 | -4.47877 | 118.60672 | 22371 ft | 426 kts | 290° |
| 2026-04-24 08:08 | -4.46848 | 118.57878 | 22699 ft | 429 kts | 290° |
| 2026-04-24 08:08 | -4.45814 | 118.55069 | 23041 ft | 431 kts | 290° |
| 2026-04-24 08:09 | -4.43723 | 118.49392 | 23701 ft | 436 kts | 290° |
| 2026-04-24 08:09 | -4.42672 | 118.46538 | 24015 ft | 437 kts | 290° |
| 2026-04-24 08:09 | -4.41616 | 118.43669 | 24315 ft | 440 kts | 290° |
| 2026-04-24 08:09 | -4.40554 | 118.40786 | 24604 ft | 442 kts | 290° |
| 2026-04-24 08:10 | -4.39486 | 118.37888 | 24908 ft | 444 kts | 290° |
| 2026-04-24 08:10 | -4.38416 | 118.34977 | 25220 ft | 446 kts | 290° |
| 2026-04-24 08:10 | -4.37342 | 118.32051 | 25528 ft | 448 kts | 290° |
| 2026-04-24 08:10 | -4.36263 | 118.29113 | 25811 ft | 450 kts | 290° |
| 2026-04-24 08:11 | -4.35180 | 118.26163 | 26101 ft | 453 kts | 290° |
| 2026-04-24 08:11 | -4.34089 | 118.23196 | 26395 ft | 455 kts | 291° |
| 2026-04-24 08:11 | -4.32995 | 118.20219 | 26685 ft | 457 kts | 291° |
| 2026-04-24 08:11 | -4.31892 | 118.17219 | 26967 ft | 459 kts | 291° |
| 2026-04-24 08:12 | -4.30787 | 118.14214 | 27263 ft | 461 kts | 291° |
| 2026-04-24 08:12 | -4.29676 | 118.11193 | 27547 ft | 463 kts | 291° |
| 2026-04-24 08:12 | -4.28574 | 118.08197 | 27813 ft | 465 kts | 291° |
| 2026-04-24 08:12 | -4.27450 | 118.05140 | 28083 ft | 468 kts | 291° |
| 2026-04-24 08:13 | -4.26322 | 118.02076 | 28369 ft | 470 kts | 291° |
| 2026-04-24 08:13 | -4.25190 | 117.99000 | 28636 ft | 472 kts | 291° |
| 2026-04-24 08:13 | -4.24051 | 117.95905 | 28917 ft | 474 kts | 291° |
| 2026-04-24 08:13 | -4.22909 | 117.92802 | 29170 ft | 476 kts | 291° |
| 2026-04-24 08:14 | -4.21759 | 117.89679 | 29454 ft | 478 kts | 291° |
| 2026-04-24 08:14 | -4.20605 | 117.86544 | 29730 ft | 480 kts | 291° |
| 2026-04-24 08:14 | -4.19448 | 117.83401 | 29983 ft | 483 kts | 291° |
| 2026-04-24 08:14 | -4.18281 | 117.80232 | 30220 ft | 485 kts | 291° |
| 2026-04-24 08:15 | -4.17113 | 117.77059 | 30466 ft | 487 kts | 291° |
| 2026-04-24 08:15 | -4.15936 | 117.73864 | 30707 ft | 489 kts | 291° |
| 2026-04-24 08:15 | -4.14756 | 117.70663 | 30961 ft | 491 kts | 291° |
| 2026-04-24 08:15 | -4.13568 | 117.67438 | 31208 ft | 494 kts | 291° |
| 2026-04-24 08:16 | -4.12376 | 117.64203 | 31440 ft | 496 kts | 291° |
| 2026-04-24 08:16 | -4.11178 | 117.60952 | 31698 ft | 498 kts | 291° |
| 2026-04-24 08:16 | -4.09975 | 117.57690 | 31926 ft | 500 kts | 291° |
| 2026-04-24 08:16 | -4.08768 | 117.54416 | 32156 ft | 502 kts | 291° |
| 2026-04-24 08:17 | -4.07556 | 117.51128 | 32360 ft | 504 kts | 291° |
| 2026-04-24 08:17 | -4.06337 | 117.47823 | 32541 ft | 506 kts | 291° |
| 2026-04-24 08:17 | -4.05115 | 117.44508 | 32708 ft | 508 kts | 291° |
| 2026-04-24 08:17 | -4.03891 | 117.41191 | 32863 ft | 509 kts | 291° |
| 2026-04-24 08:18 | -4.02661 | 117.37857 | 33000 ft | 511 kts | 291° |
| 2026-04-24 08:18 | -4.01429 | 117.34517 | 33130 ft | 512 kts | 291° |
| 2026-04-24 08:18 | -4.00193 | 117.31170 | 33227 ft | 513 kts | 291° |
| 2026-04-24 08:18 | -3.98955 | 117.27815 | 33374 ft | 513 kts | 291° |
| 2026-04-24 08:19 | -3.97838 | 117.24420 | 33497 ft | 514 kts | 285° |
| 2026-04-24 08:19 | -3.97059 | 117.20923 | 33644 ft | 514 kts | 282° |
| 2026-04-24 08:19 | -3.96326 | 117.17413 | 33779 ft | 515 kts | 282° |
| 2026-04-24 08:19 | -3.95582 | 117.13911 | 33922 ft | 514 kts | 283° |
| 2026-04-24 08:20 | -3.94833 | 117.10413 | 34090 ft | 513 kts | 283° |
| 2026-04-24 08:20 | -3.94084 | 117.06920 | 34249 ft | 512 kts | 283° |
| 2026-04-24 08:20 | -3.93337 | 117.03435 | 34422 ft | 511 kts | 283° |
| 2026-04-24 08:20 | -3.92592 | 116.99957 | 34590 ft | 510 kts | 283° |
| 2026-04-24 08:21 | -3.91848 | 116.96489 | 34748 ft | 509 kts | 283° |
| 2026-04-24 08:21 | -3.91106 | 116.93027 | 34920 ft | 508 kts | 283° |
| 2026-04-24 08:21 | -3.90363 | 116.89561 | 34983 ft | 509 kts | 283° |
| 2026-04-24 08:22 | -3.88873 | 116.82609 | 35044 ft | 512 kts | 283° |
| 2026-04-24 08:22 | -3.87372 | 116.75614 | 35103 ft | 513 kts | 283° |
| 2026-04-24 08:23 | -3.85881 | 116.68665 | 35157 ft | 514 kts | 283° |
| 2026-04-24 08:23 | -3.84378 | 116.61663 | 35208 ft | 514 kts | 283° |
| 2026-04-24 08:24 | -3.82875 | 116.54667 | 35269 ft | 514 kts | 283° |
| 2026-04-24 08:24 | -3.81372 | 116.47669 | 35322 ft | 513 kts | 283° |
| 2026-04-24 08:25 | -3.79869 | 116.40679 | 35374 ft | 513 kts | 283° |
| 2026-04-24 08:25 | -3.78371 | 116.33712 | 35709 ft | 506 kts | 283° |
| 2026-04-24 08:25 | -3.77634 | 116.30283 | 36079 ft | 500 kts | 283° |
| 2026-04-24 08:26 | -3.76903 | 116.26886 | 36314 ft | 498 kts | 283° |
| 2026-04-24 08:26 | -3.76174 | 116.23502 | 36500 ft | 497 kts | 283° |
| 2026-04-24 08:26 | -3.75436 | 116.20074 | 36690 ft | 497 kts | 283° |
| 2026-04-24 08:26 | -3.74718 | 116.16738 | 36854 ft | 496 kts | 283° |
| 2026-04-24 08:27 | -3.73991 | 116.13362 | 37041 ft | 495 kts | 283° |
| 2026-04-24 08:27 | -3.73266 | 116.09996 | 37210 ft | 494 kts | 283° |
| 2026-04-24 08:27 | -3.72541 | 116.06635 | 37382 ft | 494 kts | 283° |
| 2026-04-24 08:27 | -3.71818 | 116.03273 | 37538 ft | 493 kts | 283° |
| 2026-04-24 08:28 | -3.71095 | 115.99917 | 37711 ft | 492 kts | 283° |
| 2026-04-24 08:28 | -3.69650 | 115.93215 | 37787 ft | 492 kts | 283° |
| 2026-04-24 08:29 | -3.68207 | 115.86525 | 37793 ft | 492 kts | 283° |
| 2026-04-24 08:29 | -3.66763 | 115.79831 | 37788 ft | 492 kts | 283° |
| 2026-04-24 08:30 | -3.65561 | 115.74263 | 37788 ft | 492 kts | 283° |
| 2026-04-24 08:30 | -3.63867 | 115.66417 | 37783 ft | 496 kts | 283° |
| 2026-04-24 08:31 | -3.62651 | 115.60783 | 37785 ft | 499 kts | 283° |
| 2026-04-24 08:31 | -3.61175 | 115.53952 | 37781 ft | 503 kts | 283° |
| 2026-04-24 08:32 | -3.59694 | 115.47096 | 37778 ft | 505 kts | 283° |
| 2026-04-24 08:32 | -3.58204 | 115.40207 | 37778 ft | 507 kts | 283° |
| 2026-04-24 08:33 | -3.56711 | 115.33306 | 37777 ft | 508 kts | 283° |
| 2026-04-24 08:33 | -3.55207 | 115.26351 | 37780 ft | 507 kts | 283° |
| 2026-04-24 08:34 | -3.53711 | 115.19442 | 37773 ft | 507 kts | 283° |
| 2026-04-24 08:34 | -3.52218 | 115.12549 | 37768 ft | 507 kts | 283° |
| 2026-04-24 08:35 | -3.50726 | 115.05661 | 37766 ft | 506 kts | 283° |
| 2026-04-24 08:35 | -3.49234 | 114.98773 | 37754 ft | 506 kts | 283° |
| 2026-04-24 08:36 | -3.47744 | 114.91901 | 37750 ft | 505 kts | 283° |
| 2026-04-24 08:36 | -3.46252 | 114.85019 | 37749 ft | 506 kts | 283° |
| 2026-04-24 08:37 | -3.44726 | 114.78142 | 37745 ft | 506 kts | 285° |
| 2026-04-24 08:37 | -3.42351 | 114.71570 | 37747 ft | 506 kts | 296° |
| 2026-04-24 08:38 | -3.38872 | 114.65467 | 37745 ft | 505 kts | 303° |
| 2026-04-24 08:38 | -3.35130 | 114.59523 | 37720 ft | 505 kts | 303° |
| 2026-04-24 08:39 | -3.31396 | 114.53547 | 37723 ft | 505 kts | 303° |
| 2026-04-24 08:39 | -3.27665 | 114.47582 | 37716 ft | 506 kts | 303° |
| 2026-04-24 08:40 | -3.23930 | 114.41617 | 37715 ft | 506 kts | 303° |
| 2026-04-24 08:40 | -3.20196 | 114.35654 | 37709 ft | 506 kts | 303° |
| 2026-04-24 08:41 | -3.16457 | 114.29685 | 37709 ft | 506 kts | 303° |
| 2026-04-24 08:41 | -3.12721 | 114.23721 | 37719 ft | 506 kts | 303° |
| 2026-04-24 08:42 | -3.08983 | 114.17755 | 37720 ft | 506 kts | 303° |
| 2026-04-24 08:42 | -3.05249 | 114.11795 | 37718 ft | 506 kts | 303° |
| 2026-04-24 08:43 | -3.01510 | 114.05831 | 37725 ft | 506 kts | 303° |
| 2026-04-24 08:43 | -2.97771 | 113.99865 | 37722 ft | 505 kts | 303° |
| 2026-04-24 08:44 | -2.94034 | 113.93904 | 37723 ft | 505 kts | 303° |
| 2026-04-24 08:44 | -2.90295 | 113.87941 | 37727 ft | 505 kts | 303° |
| 2026-04-24 08:45 | -2.86558 | 113.81982 | 37726 ft | 505 kts | 303° |
| 2026-04-24 08:45 | -2.82849 | 113.76066 | 37725 ft | 505 kts | 303° |
| 2026-04-24 08:46 | -2.79110 | 113.70106 | 37729 ft | 505 kts | 303° |
| 2026-04-24 08:46 | -2.75377 | 113.64154 | 37728 ft | 505 kts | 303° |
| 2026-04-24 08:47 | -2.71646 | 113.58208 | 37723 ft | 505 kts | 303° |
| 2026-04-24 08:47 | -2.67910 | 113.52254 | 37729 ft | 505 kts | 303° |
| 2026-04-24 08:48 | -2.64198 | 113.46340 | 37732 ft | 504 kts | 303° |
| 2026-04-24 08:48 | -2.60465 | 113.40393 | 37729 ft | 504 kts | 303° |
| 2026-04-24 08:49 | -2.56736 | 113.34437 | 37735 ft | 504 kts | 303° |
| 2026-04-24 08:49 | -2.53012 | 113.28482 | 37735 ft | 504 kts | 303° |
| 2026-04-24 08:50 | -2.49293 | 113.22538 | 37757 ft | 503 kts | 303° |
| 2026-04-24 08:50 | -2.45587 | 113.16617 | 37762 ft | 501 kts | 303° |
| 2026-04-24 08:51 | -2.41884 | 113.10701 | 37760 ft | 502 kts | 303° |
| 2026-04-24 08:51 | -2.38177 | 113.04780 | 37759 ft | 501 kts | 303° |
| 2026-04-24 08:52 | -2.34471 | 112.98862 | 37762 ft | 502 kts | 303° |
| 2026-04-24 08:52 | -2.30788 | 112.92980 | 37762 ft | 502 kts | 303° |
| 2026-04-24 08:53 | -2.27080 | 112.87060 | 37763 ft | 502 kts | 303° |
| 2026-04-24 08:53 | -2.23373 | 112.81141 | 37768 ft | 502 kts | 303° |
| 2026-04-24 08:54 | -2.19667 | 112.75224 | 37764 ft | 502 kts | 303° |
| 2026-04-24 08:54 | -2.15955 | 112.69300 | 37767 ft | 502 kts | 303° |
| 2026-04-24 08:55 | -2.12248 | 112.63383 | 37771 ft | 502 kts | 303° |
| 2026-04-24 08:55 | -2.08540 | 112.57467 | 37766 ft | 502 kts | 303° |
| 2026-04-24 08:56 | -2.04832 | 112.51550 | 37775 ft | 502 kts | 303° |
| 2026-04-24 08:56 | -2.01125 | 112.45635 | 37775 ft | 502 kts | 303° |
| 2026-04-24 08:57 | -1.97418 | 112.39722 | 37774 ft | 502 kts | 303° |
| 2026-04-24 08:57 | -1.93711 | 112.33809 | 37769 ft | 501 kts | 303° |
| 2026-04-24 08:58 | -1.90006 | 112.27900 | 37768 ft | 501 kts | 303° |
| 2026-04-24 08:58 | -1.86303 | 112.21994 | 37772 ft | 501 kts | 303° |
| 2026-04-24 08:59 | -1.82598 | 112.16087 | 37774 ft | 501 kts | 303° |
| 2026-04-24 08:59 | -1.78897 | 112.10185 | 37772 ft | 501 kts | 303° |
| 2026-04-24 09:00 | -1.75192 | 112.04278 | 37775 ft | 501 kts | 303° |
| 2026-04-24 09:00 | -1.71488 | 111.98373 | 37779 ft | 501 kts | 303° |
| 2026-04-24 09:01 | -1.67807 | 111.92505 | 37783 ft | 501 kts | 303° |
| 2026-04-24 09:01 | -1.64081 | 111.86565 | 37785 ft | 501 kts | 303° |
| 2026-04-24 09:02 | -1.60381 | 111.80669 | 37783 ft | 500 kts | 303° |
| 2026-04-24 09:02 | -1.56712 | 111.74768 | 37776 ft | 500 kts | 299° |
| 2026-04-24 09:02 | -1.55315 | 111.71585 | 37782 ft | 500 kts | 288° |
| 2026-04-24 09:03 | -1.54314 | 111.68251 | 37780 ft | 500 kts | 286° |
| 2026-04-24 09:03 | -1.52416 | 111.61561 | 37782 ft | 500 kts | 287° |
| 2026-04-24 09:04 | -1.50467 | 111.54887 | 37783 ft | 500 kts | 287° |
| 2026-04-24 09:04 | -1.48491 | 111.48227 | 37785 ft | 500 kts | 287° |
| 2026-04-24 09:05 | -1.46520 | 111.41605 | 37784 ft | 499 kts | 287° |
| 2026-04-24 09:05 | -1.44528 | 111.34911 | 37782 ft | 499 kts | 287° |
| 2026-04-24 09:06 | -1.42564 | 111.28307 | 37779 ft | 499 kts | 287° |
| 2026-04-24 09:06 | -1.40585 | 111.21657 | 37775 ft | 499 kts | 287° |
| 2026-04-24 09:07 | -1.38927 | 111.16081 | 37775 ft | 499 kts | 287° |
| 2026-04-24 09:07 | -1.35968 | 111.06138 | 37773 ft | 500 kts | 287° |
| 2026-04-24 09:08 | -1.33985 | 110.99475 | 37773 ft | 500 kts | 287° |
| 2026-04-24 09:08 | -1.32000 | 110.92807 | 37767 ft | 500 kts | 287° |
| 2026-04-24 09:09 | -1.30014 | 110.86133 | 37771 ft | 500 kts | 287° |
| 2026-04-24 09:09 | -1.28028 | 110.79464 | 37759 ft | 500 kts | 287° |
| 2026-04-24 09:10 | -1.26043 | 110.72797 | 37742 ft | 500 kts | 287° |
| 2026-04-24 09:10 | -1.24060 | 110.66138 | 37739 ft | 499 kts | 287° |
| 2026-04-24 09:11 | -1.22079 | 110.59487 | 37741 ft | 499 kts | 287° |
| 2026-04-24 09:11 | -1.20099 | 110.52842 | 37730 ft | 499 kts | 287° |
| 2026-04-24 09:12 | -1.18134 | 110.46248 | 37733 ft | 498 kts | 287° |
| 2026-04-24 09:12 | -1.16156 | 110.39606 | 37727 ft | 498 kts | 287° |
| 2026-04-24 09:13 | -1.14180 | 110.32973 | 37724 ft | 498 kts | 287° |
| 2026-04-24 09:13 | -1.12202 | 110.26340 | 37727 ft | 498 kts | 287° |
| 2026-04-24 09:14 | -1.10220 | 110.19692 | 37723 ft | 498 kts | 287° |
| 2026-04-24 09:14 | -1.08243 | 110.13058 | 37734 ft | 498 kts | 287° |
| 2026-04-24 09:15 | -1.06267 | 110.06430 | 37726 ft | 498 kts | 287° |
| 2026-04-24 09:15 | -1.04290 | 109.99795 | 37726 ft | 498 kts | 287° |
| 2026-04-24 09:16 | -1.02312 | 109.93159 | 37726 ft | 498 kts | 287° |
| 2026-04-24 09:16 | -1.00334 | 109.86525 | 37724 ft | 498 kts | 287° |
| 2026-04-24 09:17 | -0.98355 | 109.79886 | 37727 ft | 498 kts | 287° |
| 2026-04-24 09:17 | -0.96377 | 109.73253 | 37729 ft | 498 kts | 287° |
| 2026-04-24 09:18 | -0.94396 | 109.66608 | 37728 ft | 499 kts | 287° |
| 2026-04-24 09:18 | -0.92415 | 109.59965 | 37725 ft | 499 kts | 287° |
| 2026-04-24 09:19 | -0.90432 | 109.53317 | 37738 ft | 499 kts | 287° |
| 2026-04-24 09:19 | -0.88464 | 109.46718 | 37735 ft | 499 kts | 287° |
| 2026-04-24 09:20 | -0.86148 | 109.38950 | 37744 ft | 499 kts | 287° |
| 2026-04-24 09:20 | -0.84501 | 109.33427 | 37739 ft | 499 kts | 287° |
| 2026-04-24 09:21 | -0.82520 | 109.26786 | 37743 ft | 499 kts | 287° |
| 2026-04-24 09:21 | -0.80537 | 109.20141 | 37744 ft | 499 kts | 287° |
| 2026-04-24 09:22 | -0.78553 | 109.13490 | 37747 ft | 499 kts | 287° |
| 2026-04-24 09:22 | -0.76569 | 109.06840 | 37759 ft | 499 kts | 287° |
| 2026-04-24 09:23 | -0.74583 | 109.00186 | 37770 ft | 499 kts | 287° |
| 2026-04-24 09:23 | -0.72599 | 108.93538 | 37771 ft | 499 kts | 287° |
| 2026-04-24 09:24 | -0.70615 | 108.86890 | 37765 ft | 499 kts | 287° |
| 2026-04-24 09:24 | -0.68634 | 108.80251 | 37770 ft | 499 kts | 287° |
| 2026-04-24 09:25 | -0.66651 | 108.73604 | 37774 ft | 499 kts | 287° |
| 2026-04-24 09:25 | -0.64668 | 108.66960 | 37774 ft | 499 kts | 287° |
| 2026-04-24 09:26 | -0.62687 | 108.60322 | 37773 ft | 499 kts | 287° |
| 2026-04-24 09:26 | -0.60705 | 108.53683 | 37773 ft | 498 kts | 287° |
| 2026-04-24 09:27 | -0.58721 | 108.47036 | 37776 ft | 498 kts | 287° |
| 2026-04-24 09:27 | -0.56742 | 108.40404 | 37773 ft | 498 kts | 287° |
| 2026-04-24 09:28 | -0.54758 | 108.33759 | 37772 ft | 498 kts | 287° |
| 2026-04-24 09:28 | -0.52777 | 108.27121 | 37777 ft | 499 kts | 287° |
| 2026-04-24 09:29 | -0.50793 | 108.20476 | 37768 ft | 499 kts | 287° |
| 2026-04-24 09:29 | -0.48810 | 108.13834 | 37769 ft | 499 kts | 287° |
| 2026-04-24 09:30 | -0.46827 | 108.07193 | 37784 ft | 499 kts | 287° |
| 2026-04-24 09:30 | -0.44840 | 108.00536 | 37774 ft | 499 kts | 287° |
| 2026-04-24 09:31 | -0.42850 | 107.93872 | 37776 ft | 499 kts | 287° |
| 2026-04-24 09:31 | -0.40876 | 107.87263 | 37775 ft | 499 kts | 286° |
| 2026-04-24 09:32 | -0.38892 | 107.80618 | 37804 ft | 499 kts | 286° |
| 2026-04-24 09:32 | -0.36909 | 107.73976 | 37808 ft | 499 kts | 286° |
| 2026-04-24 09:33 | -0.34923 | 107.67328 | 37807 ft | 499 kts | 286° |
| 2026-04-24 09:33 | -0.32941 | 107.60689 | 37808 ft | 497 kts | 286° |
| 2026-04-24 09:34 | -0.30964 | 107.54070 | 37808 ft | 497 kts | 286° |
| 2026-04-24 09:34 | -0.28986 | 107.47447 | 37803 ft | 497 kts | 286° |
| 2026-04-24 09:35 | -0.27011 | 107.40834 | 37810 ft | 497 kts | 286° |
| 2026-04-24 09:35 | -0.25034 | 107.34216 | 37811 ft | 497 kts | 286° |
| 2026-04-24 09:36 | -0.23060 | 107.27605 | 37808 ft | 497 kts | 286° |
| 2026-04-24 09:36 | -0.21084 | 107.20987 | 37805 ft | 497 kts | 286° |
| 2026-04-24 09:37 | -0.19109 | 107.14377 | 37803 ft | 497 kts | 286° |
| 2026-04-24 09:37 | -0.17131 | 107.07752 | 37806 ft | 497 kts | 286° |
| 2026-04-24 09:38 | -0.15153 | 107.01131 | 37803 ft | 497 kts | 286° |
| 2026-04-24 09:38 | -0.13186 | 106.94547 | 37806 ft | 498 kts | 286° |
| 2026-04-24 09:39 | -0.11205 | 106.87913 | 37807 ft | 498 kts | 286° |
| 2026-04-24 09:39 | -0.09224 | 106.81281 | 37810 ft | 498 kts | 286° |
| 2026-04-24 09:40 | -0.07241 | 106.74643 | 37807 ft | 498 kts | 286° |
| 2026-04-24 09:40 | -0.05258 | 106.68004 | 37806 ft | 499 kts | 286° |
| 2026-04-24 09:41 | -0.03274 | 106.61360 | 37805 ft | 499 kts | 286° |
| 2026-04-24 09:41 | -0.01288 | 106.54712 | 37804 ft | 500 kts | 286° |
| 2026-04-24 09:42 | 0.00700 | 106.48059 | 37809 ft | 500 kts | 286° |
| 2026-04-24 09:42 | 0.02691 | 106.41391 | 37808 ft | 500 kts | 286° |
| 2026-04-24 09:43 | 0.04683 | 106.34722 | 37819 ft | 500 kts | 286° |
| 2026-04-24 09:43 | 0.06675 | 106.28054 | 37814 ft | 501 kts | 287° |
| 2026-04-24 09:44 | 0.08667 | 106.21387 | 37815 ft | 501 kts | 286° |
| 2026-04-24 09:44 | 0.10322 | 106.15845 | 37818 ft | 501 kts | 287° |
| 2026-04-24 09:45 | 0.12315 | 106.09175 | 37809 ft | 501 kts | 286° |
| 2026-04-24 09:45 | 0.14306 | 106.02510 | 37811 ft | 500 kts | 286° |
| 2026-04-24 09:46 | 0.16295 | 105.95849 | 37817 ft | 501 kts | 287° |
| 2026-04-24 09:46 | 0.18288 | 105.89176 | 37815 ft | 501 kts | 286° |
| 2026-04-24 09:47 | 0.20283 | 105.82497 | 37812 ft | 501 kts | 286° |
| 2026-04-24 09:47 | 0.22279 | 105.75816 | 37815 ft | 501 kts | 286° |
| 2026-04-24 09:48 | 0.24271 | 105.69146 | 37813 ft | 501 kts | 286° |
| 2026-04-24 09:48 | 0.26264 | 105.62473 | 37813 ft | 501 kts | 286° |
| 2026-04-24 09:49 | 0.28259 | 105.55794 | 37813 ft | 501 kts | 286° |
| 2026-04-24 09:49 | 0.30250 | 105.49126 | 37815 ft | 501 kts | 286° |
| 2026-04-24 09:50 | 0.32240 | 105.42462 | 37813 ft | 501 kts | 286° |
| 2026-04-24 09:50 | 0.34220 | 105.35833 | 37814 ft | 501 kts | 286° |
| 2026-04-24 09:51 | 0.36214 | 105.29154 | 37821 ft | 501 kts | 286° |
| 2026-04-24 09:51 | 0.38207 | 105.22483 | 37815 ft | 500 kts | 286° |
| 2026-04-24 09:52 | 0.40196 | 105.15819 | 37812 ft | 500 kts | 286° |
| 2026-04-24 09:52 | 0.42187 | 105.09154 | 37812 ft | 500 kts | 286° |
| 2026-04-24 09:53 | 0.44175 | 105.02495 | 37813 ft | 500 kts | 286° |
| 2026-04-24 09:53 | 0.46162 | 104.95841 | 37814 ft | 499 kts | 286° |
| 2026-04-24 09:54 | 0.48126 | 104.89263 | 37786 ft | 495 kts | 286° |
| 2026-04-24 09:54 | 0.50099 | 104.82653 | 37807 ft | 496 kts | 286° |
| 2026-04-24 09:55 | 0.52073 | 104.76041 | 37805 ft | 497 kts | 286° |
| 2026-04-24 09:55 | 0.54053 | 104.69409 | 37808 ft | 498 kts | 286° |
| 2026-04-24 09:56 | 0.56031 | 104.62785 | 37806 ft | 498 kts | 286° |
| 2026-04-24 09:56 | 0.58013 | 104.56144 | 37809 ft | 498 kts | 286° |
| 2026-04-24 09:57 | 0.59995 | 104.49503 | 37812 ft | 499 kts | 286° |
| 2026-04-24 09:57 | 0.61976 | 104.42867 | 37808 ft | 498 kts | 286° |
| 2026-04-24 09:58 | 0.63956 | 104.36232 | 37807 ft | 498 kts | 286° |
| 2026-04-24 09:58 | 0.65934 | 104.29602 | 37811 ft | 498 kts | 286° |
| 2026-04-24 09:59 | 0.67915 | 104.22964 | 37810 ft | 498 kts | 285° |
| 2026-04-24 09:59 | 0.69878 | 104.16386 | 37804 ft | 497 kts | 285° |
| 2026-04-24 10:00 | 0.71857 | 104.09752 | 37804 ft | 497 kts | 285° |
| 2026-04-24 10:00 | 0.73834 | 104.03125 | 37806 ft | 497 kts | 285° |
| 2026-04-24 10:01 | 0.75810 | 103.96504 | 37807 ft | 498 kts | 285° |
| 2026-04-24 10:01 | 0.77791 | 103.89865 | 37805 ft | 498 kts | 285° |
| 2026-04-24 10:02 | 0.79769 | 103.83237 | 37807 ft | 498 kts | 285° |
| 2026-04-24 10:02 | 0.81749 | 103.76599 | 37806 ft | 498 kts | 285° |
| 2026-04-24 10:03 | 0.83729 | 103.69958 | 37802 ft | 499 kts | 285° |
| 2026-04-24 10:03 | 0.85709 | 103.63321 | 37796 ft | 499 kts | 285° |
| 2026-04-24 10:04 | 0.87691 | 103.56676 | 37794 ft | 499 kts | 286° |
| 2026-04-24 10:04 | 0.89673 | 103.50028 | 37791 ft | 499 kts | 286° |
| 2026-04-24 10:05 | 0.91654 | 103.43387 | 37790 ft | 499 kts | 286° |
| 2026-04-24 10:05 | 0.93637 | 103.36739 | 37786 ft | 499 kts | 286° |
| 2026-04-24 10:06 | 0.96608 | 103.26774 | 37783 ft | 499 kts | 286° |
| 2026-04-24 10:07 | 0.98590 | 103.20127 | 37779 ft | 499 kts | 286° |
| 2026-04-24 10:07 | 1.00804 | 103.13558 | 37783 ft | 498 kts | 291° |
| 2026-04-24 10:08 | 1.03341 | 103.07108 | 37773 ft | 499 kts | 291° |
| 2026-04-24 10:08 | 1.05862 | 103.00647 | 37771 ft | 499 kts | 290° |
| 2026-04-24 10:09 | 1.08383 | 102.94186 | 37770 ft | 499 kts | 290° |
| 2026-04-24 10:09 | 1.10905 | 102.87725 | 37772 ft | 499 kts | 291° |
| 2026-04-24 10:10 | 1.13431 | 102.81253 | 37770 ft | 499 kts | 290° |
| 2026-04-24 10:10 | 1.15938 | 102.74830 | 37772 ft | 499 kts | 291° |
| 2026-04-24 10:11 | 1.18463 | 102.68359 | 37775 ft | 500 kts | 290° |
| 2026-04-24 10:11 | 1.21003 | 102.61849 | 37773 ft | 500 kts | 290° |
| 2026-04-24 10:12 | 1.23516 | 102.55410 | 37769 ft | 500 kts | 290° |
| 2026-04-24 10:12 | 1.26040 | 102.48941 | 37774 ft | 500 kts | 290° |
| 2026-04-24 10:13 | 1.28571 | 102.42452 | 37778 ft | 500 kts | 291° |
| 2026-04-24 10:13 | 1.31096 | 102.35980 | 37777 ft | 500 kts | 291° |
| 2026-04-24 10:14 | 1.33621 | 102.29508 | 37772 ft | 499 kts | 290° |
| 2026-04-24 10:14 | 1.36142 | 102.23042 | 37774 ft | 499 kts | 290° |
| 2026-04-24 10:15 | 1.38666 | 102.16571 | 37775 ft | 499 kts | 291° |
| 2026-04-24 10:15 | 1.41760 | 102.10373 | 37773 ft | 499 kts | 301° |
| 2026-04-24 10:16 | 1.45345 | 102.04429 | 37776 ft | 499 kts | 300° |
| 2026-04-24 10:16 | 1.48902 | 101.98467 | 37777 ft | 499 kts | 300° |
| 2026-04-24 10:17 | 1.52461 | 101.92501 | 37776 ft | 500 kts | 300° |
| 2026-04-24 10:17 | 1.56030 | 101.86521 | 37776 ft | 500 kts | 300° |
| 2026-04-24 10:18 | 1.59574 | 101.80585 | 37781 ft | 500 kts | 300° |
| 2026-04-24 10:18 | 1.63159 | 101.74578 | 37778 ft | 500 kts | 300° |
| 2026-04-24 10:19 | 1.66729 | 101.68597 | 37780 ft | 501 kts | 300° |
| 2026-04-24 10:19 | 1.70276 | 101.62654 | 37778 ft | 501 kts | 300° |
| 2026-04-24 10:20 | 1.73840 | 101.56680 | 37773 ft | 501 kts | 300° |
| 2026-04-24 10:20 | 1.77408 | 101.50701 | 37774 ft | 501 kts | 300° |
| 2026-04-24 10:21 | 1.80977 | 101.44720 | 37772 ft | 501 kts | 300° |
| 2026-04-24 10:21 | 1.84547 | 101.38734 | 37769 ft | 501 kts | 300° |
| 2026-04-24 10:22 | 1.88114 | 101.32754 | 37769 ft | 501 kts | 300° |
| 2026-04-24 10:22 | 1.91683 | 101.26771 | 37767 ft | 501 kts | 300° |
| 2026-04-24 10:23 | 1.94648 | 101.21798 | 37767 ft | 501 kts | 300° |
| 2026-04-24 10:23 | 1.98219 | 101.15811 | 37768 ft | 501 kts | 300° |
| 2026-04-24 10:24 | 2.01790 | 101.09822 | 37768 ft | 501 kts | 300° |
| 2026-04-24 10:24 | 2.05360 | 101.03834 | 37770 ft | 501 kts | 300° |
| 2026-04-24 10:25 | 2.08930 | 100.97845 | 37770 ft | 502 kts | 300° |
| 2026-04-24 10:25 | 2.12502 | 100.91852 | 37773 ft | 502 kts | 300° |
| 2026-04-24 10:26 | 2.16080 | 100.85850 | 37778 ft | 502 kts | 300° |
| 2026-04-24 10:26 | 2.19654 | 100.79852 | 37777 ft | 502 kts | 300° |
| 2026-04-24 10:27 | 2.23203 | 100.73896 | 37778 ft | 501 kts | 300° |
| 2026-04-24 10:27 | 2.26772 | 100.67906 | 37776 ft | 501 kts | 300° |
| 2026-04-24 10:28 | 2.30339 | 100.61918 | 37775 ft | 501 kts | 300° |
| 2026-04-24 10:28 | 2.33907 | 100.55929 | 37779 ft | 501 kts | 300° |
| 2026-04-24 10:29 | 2.37477 | 100.49938 | 37782 ft | 501 kts | 300° |
| 2026-04-24 10:29 | 2.41054 | 100.43951 | 37783 ft | 501 kts | 300° |
| 2026-04-24 10:30 | 2.44623 | 100.37975 | 37784 ft | 501 kts | 300° |
| 2026-04-24 10:30 | 2.48198 | 100.31987 | 37782 ft | 501 kts | 300° |
| 2026-04-24 10:31 | 2.51768 | 100.26006 | 37789 ft | 501 kts | 300° |
| 2026-04-24 10:31 | 2.55344 | 100.20015 | 37790 ft | 501 kts | 300° |
| 2026-04-24 10:32 | 2.58914 | 100.14034 | 37788 ft | 501 kts | 300° |
| 2026-04-24 10:32 | 2.62483 | 100.08051 | 37793 ft | 501 kts | 300° |
| 2026-04-24 10:33 | 2.66055 | 100.02065 | 37796 ft | 501 kts | 300° |
| 2026-04-24 10:33 | 2.69610 | 99.96104 | 37799 ft | 501 kts | 300° |
| 2026-04-24 10:34 | 2.72521 | 99.89793 | 37800 ft | 500 kts | 287° |
| 2026-04-24 10:34 | 2.74657 | 99.83177 | 37804 ft | 500 kts | 287° |
| 2026-04-24 10:35 | 2.76831 | 99.76564 | 37804 ft | 500 kts | 287° |
| 2026-04-24 10:35 | 2.79010 | 99.69944 | 37805 ft | 501 kts | 287° |
| 2026-04-24 10:36 | 2.81187 | 99.63325 | 37808 ft | 501 kts | 287° |
| 2026-04-24 10:36 | 2.83360 | 99.56712 | 37811 ft | 501 kts | 287° |
| 2026-04-24 10:37 | 2.85535 | 99.50090 | 37803 ft | 500 kts | 287° |
| 2026-04-24 10:37 | 2.86618 | 99.46795 | 37522 ft | 498 kts | 287° |
| 2026-04-24 10:37 | 2.87708 | 99.43475 | 36917 ft | 506 kts | 287° |
| 2026-04-24 10:37 | 2.88802 | 99.40145 | 36333 ft | 500 kts | 287° |
| 2026-04-24 10:38 | 2.89884 | 99.36851 | 35591 ft | 495 kts | 287° |
| 2026-04-24 10:38 | 2.90956 | 99.33587 | 34871 ft | 492 kts | 287° |
| 2026-04-24 10:38 | 2.92021 | 99.30340 | 34169 ft | 489 kts | 287° |
| 2026-04-24 10:38 | 2.92579 | 99.28643 | 33799 ft | 489 kts | 287° |
| 2026-04-24 10:48 | 2.93369 | 99.26235 | 33229 ft | 489 kts | 287° |
| 2026-04-24 10:48 | 2.94446 | 99.22954 | 32377 ft | 491 kts | 287° |
| 2026-04-24 10:48 | 2.95509 | 99.19711 | 31299 ft | 491 kts | 287° |
| 2026-04-24 10:49 | 2.96618 | 99.16471 | 30150 ft | 492 kts | 291° |
| 2026-04-24 10:49 | 2.98118 | 99.13407 | 28893 ft | 491 kts | 300° |
| 2026-04-24 10:49 | 3.00061 | 99.10605 | 27628 ft | 489 kts | 309° |
| 2026-04-24 10:49 | 3.02371 | 99.08126 | 26423 ft | 485 kts | 316° |
| 2026-04-24 10:50 | 3.04772 | 99.05777 | 25278 ft | 481 kts | 315° |
| 2026-04-24 10:50 | 3.07140 | 99.03434 | 24221 ft | 475 kts | 315° |
| 2026-04-24 10:50 | 3.09443 | 99.01143 | 23126 ft | 471 kts | 315° |
| 2026-04-24 10:50 | 3.11755 | 98.98840 | 21852 ft | 466 kts | 315° |
| 2026-04-24 10:51 | 3.14066 | 98.96539 | 20644 ft | 460 kts | 316° |
| 2026-04-24 10:51 | 3.16291 | 98.94322 | 19496 ft | 454 kts | 316° |
| 2026-04-24 10:51 | 3.18517 | 98.92105 | 18432 ft | 447 kts | 316° |
| 2026-04-24 10:51 | 3.20684 | 98.89946 | 17939 ft | 427 kts | 316° |
| 2026-04-24 10:52 | 3.22744 | 98.87895 | 17689 ft | 409 kts | 316° |
| 2026-04-24 10:52 | 3.24740 | 98.85906 | 16948 ft | 404 kts | 316° |
| 2026-04-24 10:52 | 3.26746 | 98.83910 | 15769 ft | 411 kts | 316° |
| 2026-04-24 10:52 | 3.28788 | 98.81878 | 14845 ft | 413 kts | 316° |
| 2026-04-24 10:53 | 3.30814 | 98.79861 | 14100 ft | 408 kts | 316° |
| 2026-04-24 10:53 | 3.32818 | 98.77891 | 13619 ft | 396 kts | 317° |
| 2026-04-24 10:53 | 3.34764 | 98.76035 | 13395 ft | 375 kts | 317° |
| 2026-04-24 10:53 | 3.36598 | 98.74301 | 13143 ft | 350 kts | 317° |
| 2026-04-24 10:54 | 3.38304 | 98.72686 | 12915 ft | 326 kts | 317° |
| 2026-04-24 10:54 | 3.39880 | 98.71188 | 12714 ft | 305 kts | 317° |
| 2026-04-24 10:54 | 3.41363 | 98.69778 | 12526 ft | 284 kts | 317° |
| 2026-04-24 10:54 | 3.42754 | 98.68451 | 12151 ft | 272 kts | 317° |
| 2026-04-24 10:55 | 3.44115 | 98.67154 | 11585 ft | 268 kts | 317° |
| 2026-04-24 10:55 | 3.45604 | 98.66087 | 11130 ft | 260 kts | 339° |
| 2026-04-24 10:55 | 3.47344 | 98.65794 | 10887 ft | 255 kts | 6° |
| 2026-04-24 10:55 | 3.49030 | 98.66332 | 10666 ft | 255 kts | 33° |
| 2026-04-24 10:56 | 3.50261 | 98.67567 | 10429 ft | 252 kts | 60° |
| 2026-04-24 10:56 | 3.50765 | 98.69219 | 10189 ft | 249 kts | 88° |
| 2026-04-24 10:56 | 3.50453 | 98.70923 | 9780 ft | 253 kts | 112° |
| 2026-04-24 10:56 | 3.49482 | 98.72392 | 9190 ft | 255 kts | 134° |
| 2026-04-24 10:57 | 3.48130 | 98.73539 | 8599 ft | 255 kts | 140° |
| 2026-04-24 10:57 | 3.46785 | 98.74711 | 7913 ft | 258 kts | 138° |
| 2026-04-24 10:57 | 3.45448 | 98.75952 | 7128 ft | 265 kts | 137° |
| 2026-04-24 10:57 | 3.44106 | 98.77237 | 6363 ft | 270 kts | 136° |
| 2026-04-24 10:58 | 3.42630 | 98.78421 | 5553 ft | 276 kts | 153° |
| 2026-04-24 10:58 | 3.40774 | 98.78913 | 4840 ft | 279 kts | 180° |
| 2026-04-24 10:58 | 3.38961 | 98.78502 | 4641 ft | 258 kts | 207° |
| 2026-04-24 10:58 | 3.37660 | 98.77378 | 4479 ft | 242 kts | 236° |
| 2026-04-24 10:59 | 3.37101 | 98.75850 | 4246 ft | 233 kts | 265° |
| 2026-04-24 10:59 | 3.37321 | 98.74259 | 3998 ft | 234 kts | 290° |
| 2026-04-24 10:59 | 3.38121 | 98.72839 | 3769 ft | 234 kts | 310° |
| 2026-04-24 10:59 | 3.39309 | 98.71745 | 3533 ft | 233 kts | 321° |
| 2026-04-24 11:00 | 3.40533 | 98.70671 | 3295 ft | 233 kts | 319° |
| 2026-04-24 11:00 | 3.41715 | 98.69566 | 3063 ft | 233 kts | 318° |
| 2026-04-24 11:00 | 3.42878 | 98.68459 | 2898 ft | 225 kts | 317° |
| 2026-04-24 11:00 | 3.43968 | 98.67392 | 2803 ft | 213 kts | 317° |
| 2026-04-24 11:01 | 3.45081 | 98.66523 | 2685 ft | 200 kts | 338° |
| 2026-04-24 11:01 | 3.46380 | 98.66368 | 2626 ft | 182 kts | 14° |
| 2026-04-24 11:01 | 3.47403 | 98.66970 | 2522 ft | 165 kts | 53° |
| 2026-04-24 11:01 | 3.47786 | 98.67973 | 2440 ft | 154 kts | 85° |
| 2026-04-24 11:02 | 3.47819 | 98.69078 | 2774 ft | 165 kts | 91° |
| 2026-04-24 11:02 | 3.47881 | 98.70253 | 2569 ft | 172 kts | 81° |
| 2026-04-24 11:02 | 3.48122 | 98.70996 | 2461 ft | 157 kts | 64° |
| 2026-04-24 11:02 | 3.48906 | 98.72113 | 2519 ft | 149 kts | 51° |
| 2026-04-24 11:03 | 3.49384 | 98.72629 | 2502 ft | 149 kts | 46° |
| 2026-04-24 11:03 | 3.50122 | 98.73352 | 2501 ft | 147 kts | 45° |
| 2026-04-24 11:03 | 3.50845 | 98.74076 | 2463 ft | 149 kts | 46° |
| 2026-04-24 11:03 | 3.51570 | 98.74804 | 2357 ft | 143 kts | 46° |
| 2026-04-24 11:04 | 3.52280 | 98.75517 | 2310 ft | 149 kts | 46° |
| 2026-04-24 11:04 | 3.53014 | 98.76253 | 2246 ft | 149 kts | 46° |
| 2026-04-24 11:04 | 3.53733 | 98.76974 | 2183 ft | 147 kts | 46° |
| 2026-04-24 11:04 | 3.54450 | 98.77693 | 2111 ft | 146 kts | 46° |
| 2026-04-24 11:05 | 3.55177 | 98.78422 | 1965 ft | 148 kts | 47° |
| 2026-04-24 11:05 | 3.55895 | 98.79144 | 1774 ft | 146 kts | 47° |
| 2026-04-24 11:05 | 3.56615 | 98.79865 | 1625 ft | 148 kts | 47° |
| 2026-04-24 11:05 | 3.57333 | 98.80587 | 1425 ft | 146 kts | 46° |
| 2026-04-24 11:06 | 3.58048 | 98.81301 | 1238 ft | 142 kts | 46° |
| 2026-04-24 11:06 | 3.58750 | 98.82009 | 1049 ft | 144 kts | 46° |
| 2026-04-24 11:06 | 3.59434 | 98.82695 | 903 ft | 138 kts | 46° |
| 2026-04-24 11:06 | 3.60111 | 98.83375 | 737 ft | 143 kts | 46° |
| 2026-04-24 11:07 | 3.61403 | 98.84664 | 363 ft | 125 kts | 46° |
| 2026-04-24 11:07 | 3.62121 | 98.85416 | 273 ft | 162 kts | 47° |
| 2026-04-24 11:07 | 3.62874 | 98.86176 | 52 ft | 146 kts | 44° |
| 2026-04-24 11:08 | 3.63524 | 98.86802 | 42 ft | 105 kts | 44° |
| 2026-04-24 11:08 | 3.63899 | 98.87173 | 43 ft | 51 kts | 45° |
| 2026-04-24 11:08 | 3.64055 | 98.87351 | 40 ft | 18 kts | 57° |
| 2026-04-24 11:08 | 3.64073 | 98.87389 | 40 ft | 3 kts | 64° |
| 2026-04-24 11:09 | 3.64086 | 98.87421 | 40 ft | 6 kts | 69° |
| 2026-04-24 11:09 | 3.64100 | 98.87464 | 41 ft | 7 kts | 72° |
| 2026-04-24 11:09 | 3.64112 | 98.87502 | 41 ft | 0 kts | 73° |
| 2026-04-24 11:14 | 3.64113 | 98.87503 | 41 ft | 1 kts | 73° |
| 2026-04-24 11:14 | 3.64118 | 98.87526 | 21 ft | 5 kts | 76° |
| 2026-04-24 11:14 | 3.64129 | 98.87573 | 43 ft | 9 kts | 76° |
| 2026-04-24 11:15 | 3.64153 | 98.87641 | 44 ft | 12 kts | 68° |
| 2026-04-24 11:15 | 3.64203 | 98.87724 | 44 ft | 16 kts | 51° |
| 2026-04-24 11:15 | 3.64287 | 98.87811 | 45 ft | 19 kts | 45° |
| 2026-04-24 11:15 | 3.64388 | 98.87912 | 45 ft | 21 kts | 45° |
| 2026-04-24 11:16 | 3.64398 | 98.88014 | 45 ft | 15 kts | 115° |
| 2026-04-24 11:16 | 3.64326 | 98.88082 | 46 ft | 15 kts | 136° |
| 2026-04-24 11:16 | 3.64250 | 98.88156 | 46 ft | 16 kts | 135° |
| 2026-04-24 11:16 | 3.64163 | 98.88198 | 46 ft | 11 kts | 200° |
| 2026-04-24 11:17 | 3.64108 | 98.88144 | 46 ft | 12 kts | 224° |
| 2026-04-24 11:17 | 3.64042 | 98.88081 | 46 ft | 14 kts | 224° |
| 2026-04-24 11:17 | 3.63968 | 98.88007 | 46 ft | 16 kts | 225° |
| 2026-04-24 11:17 | 3.63920 | 98.87944 | 46 ft | 7 kts | 252° |
| 2026-04-24 11:18 | 3.63894 | 98.87901 | 44 ft | 8 kts | 230° |
| 2026-04-24 11:18 | 3.63885 | 98.87891 | 46 ft | 2 kts | 229° |
| 2026-04-24 11:18 | 3.63873 | 98.87877 | 46 ft | 4 kts | 228° |
| 2026-04-24 11:18 | 3.63867 | 98.87871 | 46 ft | 0 kts | 227° |
| 2026-04-24 11:19 | 3.63860 | 98.87863 | 46 ft | 3 kts | 226° |
| 2026-04-24 11:19 | 3.63856 | 98.87859 | 46 ft | 1 kts | 226° |
| 2026-04-24 11:19 | 3.63857 | 98.87860 | 46 ft | 0 kts | 226° |